Time;durP1;ratioP1;P1;durP2;ratioP2;P2;SDS_P1;SDS_P2;PMS_P1;PMS_P2;Temp;Humidity;BMP_temperature;BMP_pressure;BME280_temperature;BME280_humidity;BME280_pressure;Samples;Min_cycle;Max_cycle;Signal;HPM_P1;HPM_P2
2024/03/23 00:01:04;;;;;;;9.68;4.18;;;11.90;99.90;;;;;;5024225;28;20225;-76
2024/03/23 00:03:37;;;;;;;7.57;4.50;;;11.90;99.90;;;;;;5034663;28;20225;-77
2024/03/23 00:06:07;;;;;;;8.02;4.13;;;11.90;99.90;;;;;;5034356;28;20225;-77
2024/03/23 00:08:49;;;;;;;13.60;5.70;;;11.80;99.90;;;;;;5034742;28;20225;-77
2024/03/23 00:11:21;;;;;;;12.98;5.20;;;11.80;99.90;;;;;;5026078;28;20228;-77
2024/03/23 00:13:50;;;;;;;11.43;4.80;;;11.80;99.90;;;;;;5034628;28;20731;-76
2024/03/23 00:16:24;;;;;;;7.28;2.90;;;11.70;99.90;;;;;;5033526;28;20221;-77
2024/03/23 00:19:02;;;;;;;12.48;4.63;;;11.70;99.90;;;;;;5034116;28;20240;-77
2024/03/23 00:21:31;;;;;;;11.90;5.72;;;11.70;99.90;;;;;;5035089;28;20209;-77
2024/03/23 00:24:00;;;;;;;9.52;3.83;;;11.70;99.90;;;;;;5023528;28;20332;-77
2024/03/23 00:26:28;;;;;;;10.10;3.80;;;11.70;99.90;;;;;;5033576;28;20233;-76
2024/03/23 00:29:03;;;;;;;10.85;3.97;;;11.70;99.90;;;;;;5033890;28;20308;-77
2024/03/23 00:31:38;;;;;;;11.20;4.05;;;11.60;99.90;;;;;;5034353;28;20278;-77
2024/03/23 00:34:06;;;;;;;7.93;3.63;;;11.60;99.90;;;;;;5033157;28;20663;-77
2024/03/23 00:39:19;;;;;;;9.00;4.05;;;11.60;99.90;;;;;;5032951;28;20256;-77
2024/03/23 00:41:55;;;;;;;8.98;4.63;;;11.50;99.90;;;;;;5033776;28;20691;-77
2024/03/23 00:44:22;;;;;;;7.45;3.70;;;11.50;99.90;;;;;;5033488;28;20614;-76
2024/03/23 00:46:57;;;;;;;7.28;3.80;;;11.50;99.90;;;;;;5023887;28;20237;-77
2024/03/23 00:49:27;;;;;;;10.45;4.25;;;11.50;99.90;;;;;;5033305;28;20228;-77
2024/03/23 00:51:54;;;;;;;10.38;4.20;;;11.50;99.90;;;;;;5027973;28;20675;-77
2024/03/23 00:54:21;;;;;;;7.85;3.90;;;11.40;99.90;;;;;;5033549;28;20716;-77
2024/03/23 00:56:49;;;;;;;18.05;5.03;;;11.40;99.90;;;;;;5033371;28;20226;-77
2024/03/23 00:59:16;;;;;;;8.63;3.22;;;11.40;99.90;;;;;;5024973;28;20555;-77
2024/03/23 01:01:42;;;;;;;7.97;3.17;;;11.40;99.90;;;;;;5022824;28;20230;-76
2024/03/23 01:04:10;;;;;;;10.35;4.10;;;11.50;99.90;;;;;;5032841;28;20233;-76
2024/03/23 01:06:37;;;;;;;6.50;3.78;;;11.50;99.90;;;;;;5032722;28;20230;-77
2024/03/23 01:09:04;;;;;;;9.10;4.15;;;11.40;99.90;;;;;;5033873;28;20278;-76
2024/03/23 01:11:30;;;;;;;8.15;3.47;;;11.40;99.90;;;;;;5033449;28;20703;-77
2024/03/23 01:13:57;;;;;;;13.60;4.37;;;11.40;99.90;;;;;;5033123;28;20217;-76
2024/03/23 01:16:30;;;;;;;10.18;4.32;;;11.40;99.90;;;;;;5032961;28;20472;-76
2024/03/23 01:19:06;;;;;;;12.93;3.83;;;11.40;99.90;;;;;;5032712;28;20220;-76
2024/03/23 01:21:38;;;;;;;7.43;4.05;;;11.40;99.90;;;;;;5033604;28;20696;-76
2024/03/23 01:24:06;;;;;;;12.75;5.60;;;11.40;99.90;;;;;;5032034;28;20229;-77
2024/03/23 01:26:38;;;;;;;13.10;4.50;;;11.40;99.90;;;;;;5023949;28;20604;-76
2024/03/23 01:31:45;;;;;;;7.47;3.47;;;11.30;99.90;;;;;;5030376;28;20282;-76
2024/03/23 01:34:16;;;;;;;10.70;4.25;;;11.30;99.90;;;;;;5032681;28;20225;-77
2024/03/23 01:36:52;;;;;;;9.20;4.18;;;11.30;99.90;;;;;;5033275;28;20240;-77
2024/03/23 01:39:18;;;;;;;9.18;4.05;;;11.30;99.90;;;;;;5032916;28;20232;-76
2024/03/23 01:41:45;;;;;;;11.27;3.95;;;11.30;99.90;;;;;;5032462;28;20260;-75
2024/03/23 01:44:15;;;;;;;8.75;3.45;;;11.30;99.90;;;;;;5033054;28;20233;-76
2024/03/23 01:46:48;;;;;;;17.30;4.65;;;11.30;99.90;;;;;;5031949;28;20225;-76
2024/03/23 01:49:14;;;;;;;13.95;4.30;;;11.30;99.90;;;;;;5033005;28;20217;-76
2024/03/23 01:51:47;;;;;;;12.25;4.75;;;11.30;99.90;;;;;;5032266;28;20279;-75
2024/03/23 01:54:13;;;;;;;12.20;4.55;;;11.30;99.90;;;;;;5032703;28;20225;-76
2024/03/23 01:56:40;;;;;;;10.43;3.53;;;11.30;99.90;;;;;;5022792;28;20228;-76
2024/03/23 01:59:07;;;;;;;14.93;4.50;;;11.30;99.90;;;;;;5031793;28;20237;-75
2024/03/23 02:01:47;;;;;;;9.55;4.53;;;11.40;99.90;;;;;;5032001;28;20221;-76
2024/03/23 02:04:13;;;;;;;7.40;3.95;;;11.40;99.90;;;;;;5032422;28;20683;-76
2024/03/23 02:06:40;;;;;;;10.85;3.92;;;11.40;99.90;;;;;;5032683;28;20217;-76
2024/03/23 02:09:13;;;;;;;10.27;4.38;;;11.50;99.90;;;;;;5032684;28;20225;-76
2024/03/23 02:11:43;;;;;;;9.18;4.30;;;11.50;99.90;;;;;;5032600;28;20233;-76
2024/03/23 02:14:09;;;;;;;9.32;4.15;;;11.50;99.90;;;;;;5032376;28;20723;-75
2024/03/23 02:16:39;;;;;;;10.20;4.80;;;11.60;99.90;;;;;;5022493;28;20320;-76
2024/03/23 02:19:10;;;;;;;9.48;3.47;;;11.60;99.90;;;;;;5032772;28;21308;-77
2024/03/23 02:21:37;;;;;;;10.10;3.85;;;11.60;99.90;;;;;;5031775;28;20671;-77
2024/03/23 02:24:05;;;;;;;17.75;4.57;;;11.70;99.90;;;;;;5032703;28;20544;-76
2024/03/23 02:26:33;;;;;;;13.95;5.18;;;11.70;99.90;;;;;;5030924;28;20283;-76
2024/03/23 02:28:59;;;;;;;7.70;3.65;;;11.70;99.90;;;;;;5022898;28;20221;-76
2024/03/23 02:31:26;;;;;;;14.48;4.60;;;11.80;99.90;;;;;;5032765;28;20236;-76
2024/03/23 02:33:55;;;;;;;16.73;5.15;;;11.80;99.90;;;;;;5031529;28;20221;-75
2024/03/23 02:36:26;;;;;;;8.23;3.85;;;11.80;99.90;;;;;;5022652;28;20242;-76
2024/03/23 02:38:52;;;;;;;9.77;4.18;;;11.80;99.90;;;;;;5031698;28;20317;-76
2024/03/23 02:41:26;;;;;;;12.57;4.50;;;11.80;99.90;;;;;;5032863;28;20738;-76
2024/03/23 02:43:52;;;;;;;8.15;4.43;;;11.80;99.90;;;;;;5032217;28;20877;-78
2024/03/23 02:46:21;;;;;;;11.10;4.05;;;11.80;99.90;;;;;;5032193;28;20304;-78
2024/03/23 02:48:56;;;;;;;10.40;4.13;;;11.80;99.90;;;;;;5031975;28;20287;-76
2024/03/23 02:51:34;;;;;;;12.77;4.18;;;11.80;99.90;;;;;;5032085;28;20315;-75
2024/03/23 02:54:00;;;;;;;12.57;4.47;;;11.80;99.90;;;;;;5020828;28;20236;-76
2024/03/23 02:56:37;;;;;;;17.52;4.50;;;11.80;99.90;;;;;;5032530;28;20221;-76
2024/03/23 02:59:03;;;;;;;9.60;5.03;;;11.80;99.90;;;;;;5033048;28;20225;-75
2024/03/23 03:01:30;;;;;;;6.07;3.47;;;11.80;99.90;;;;;;5035410;28;20304;-76
2024/03/23 03:03:56;;;;;;;9.77;4.50;;;11.80;99.90;;;;;;5025067;28;20226;-76
2024/03/23 03:06:30;;;;;;;10.77;4.97;;;11.80;99.90;;;;;;5034480;28;20222;-77
2024/03/23 03:08:56;;;;;;;17.75;5.18;;;11.80;99.90;;;;;;5035257;28;20287;-78
2024/03/23 03:11:23;;;;;;;11.70;4.90;;;11.70;99.90;;;;;;5035894;28;20785;-78
2024/03/23 03:13:52;;;;;;;9.27;4.15;;;11.80;99.90;;;;;;5035247;28;20474;-76
2024/03/23 03:16:19;;;;;;;10.65;5.00;;;11.80;99.90;;;;;;5026131;28;20626;-77
2024/03/23 03:18:52;;;;;;;8.20;4.13;;;11.70;99.90;;;;;;5025749;28;20226;-77
2024/03/23 03:21:28;;;;;;;13.85;4.38;;;11.70;99.90;;;;;;5035097;28;20217;-76
2024/03/23 03:23:56;;;;;;;10.88;3.92;;;11.70;99.90;;;;;;5035366;28;20312;-77
2024/03/23 03:26:27;;;;;;;9.35;4.75;;;11.60;99.90;;;;;;5035120;28;20221;-77
2024/03/23 03:28:55;;;;;;;12.73;4.03;;;11.60;99.90;;;;;;5035424;28;20221;-76
2024/03/23 03:31:22;;;;;;;8.13;3.50;;;11.60;99.90;;;;;;5034583;28;20225;-77
2024/03/23 03:33:50;;;;;;;10.55;4.45;;;11.60;99.90;;;;;;5035144;28;20237;-77
2024/03/23 03:36:17;;;;;;;14.90;4.22;;;11.50;99.90;;;;;;5034605;28;20292;-76
2024/03/23 03:38:43;;;;;;;8.70;4.05;;;11.50;99.90;;;;;;5035418;28;20687;-76
2024/03/23 03:41:14;;;;;;;11.33;5.00;;;11.50;99.90;;;;;;5025763;28;20232;-76
2024/03/23 03:43:42;;;;;;;8.05;3.78;;;11.50;99.90;;;;;;5034908;28;20464;-77
2024/03/23 03:46:11;;;;;;;8.18;3.80;;;11.50;99.90;;;;;;5033435;28;20209;-76
2024/03/23 03:48:37;;;;;;;5.85;4.00;;;11.50;99.90;;;;;;5035169;28;20308;-76
2024/03/23 03:51:07;;;;;;;10.32;3.80;;;11.50;99.90;;;;;;5035399;28;20279;-76
2024/03/23 03:53:33;;;;;;;8.13;4.05;;;11.50;99.90;;;;;;5033150;28;20675;-77
2024/03/23 03:56:04;;;;;;;7.97;3.83;;;11.50;99.90;;;;;;5034658;28;20241;-77
2024/03/23 03:58:32;;;;;;;7.07;2.85;;;11.50;99.90;;;;;;5034082;28;20471;-76
2024/03/23 04:00:59;;;;;;;5.97;2.83;;;11.50;99.90;;;;;;5034376;28;20225;-77
2024/03/23 04:03:27;;;;;;;4.50;2.75;;;11.50;99.90;;;;;;5032697;28;20226;-76
2024/03/23 04:05:55;;;;;;;6.65;2.85;;;11.40;99.90;;;;;;5034792;28;20683;-77
2024/03/23 04:08:26;;;;;;;8.23;2.30;;;11.40;99.90;;;;;;5024039;28;20225;-77
2024/03/23 04:11:00;;;;;;;4.45;2.58;;;11.40;99.90;;;;;;5033948;28;20274;-76
2024/03/23 04:13:26;;;;;;;5.05;2.95;;;11.40;99.90;;;;;;5034274;28;20247;-77
2024/03/23 04:15:59;;;;;;;8.90;3.30;;;11.40;99.90;;;;;;5034805;28;20308;-77
2024/03/23 04:18:26;;;;;;;4.45;2.00;;;11.30;99.90;;;;;;5033445;28;20495;-76
2024/03/23 04:20:55;;;;;;;4.60;3.08;;;11.30;99.90;;;;;;5034428;28;20221;-76
2024/03/23 04:23:21;;;;;;;3.85;2.58;;;11.30;99.90;;;;;;5023874;28;20244;-76
2024/03/23 04:25:48;;;;;;;4.47;2.20;;;11.30;99.90;;;;;;5033418;28;20213;-77
2024/03/23 04:28:14;;;;;;;4.47;2.45;;;11.20;99.90;;;;;;5023952;28;20495;-76
2024/03/23 04:30:42;;;;;;;4.83;3.03;;;11.20;99.90;;;;;;5032780;28;20221;-76
2024/03/23 04:33:08;;;;;;;5.47;2.70;;;11.20;99.90;;;;;;5025551;28;20530;-76
2024/03/23 04:35:36;;;;;;;4.88;2.35;;;11.10;99.90;;;;;;5033879;28;20629;-77
2024/03/23 04:38:04;;;;;;;7.57;2.38;;;11.10;99.90;;;;;;5034093;28;20247;-76
2024/03/23 04:40:35;;;;;;;3.40;2.63;;;11.00;99.90;;;;;;5033163;28;20674;-77
2024/03/23 04:43:04;;;;;;;9.73;2.70;;;11.00;99.90;;;;;;5034190;28;20225;-77
2024/03/23 04:45:33;;;;;;;4.15;1.50;;;11.00;99.90;;;;;;5033359;28;20226;-77
2024/03/23 04:48:00;;;;;;;5.05;3.00;;;11.00;99.90;;;;;;5033838;28;20225;-78
2024/03/23 04:50:25;;;;;;;7.45;2.03;;;10.90;99.90;;;;;;5033127;28;20671;-77
2024/03/23 04:52:54;;;;;;;2.90;1.97;;;10.90;99.90;;;;;;5033516;28;20227;-77
2024/03/23 04:55:22;;;;;;;5.60;2.22;;;10.90;99.90;;;;;;5033840;28;20560;-77
2024/03/23 04:57:51;;;;;;;2.88;1.92;;;10.90;99.90;;;;;;5033100;28;20225;-76
2024/03/23 05:00:18;;;;;;;4.68;1.98;;;10.90;99.90;;;;;;5033391;28;20281;-77
2024/03/23 05:02:45;;;;;;;5.53;2.60;;;10.90;99.90;;;;;;5033087;28;20675;-77
2024/03/23 05:05:18;;;;;;;3.95;2.67;;;10.80;99.90;;;;;;5033439;28;20217;-76
2024/03/23 05:07:47;;;;;;;3.67;2.20;;;10.80;99.90;;;;;;5032803;28;20279;-76
2024/03/23 05:10:19;;;;;;;6.22;3.03;;;10.80;99.90;;;;;;5033564;28;20213;-77
2024/03/23 05:12:45;;;;;;;6.57;1.73;;;10.80;99.90;;;;;;5033658;28;20236;-77
2024/03/23 05:15:12;;;;;;;5.38;2.10;;;10.80;99.90;;;;;;5033169;28;20225;-76
2024/03/23 05:17:38;;;;;;;6.40;2.70;;;10.80;99.90;;;;;;5031293;28;20559;-77
2024/03/23 05:20:09;;;;;;;4.65;2.33;;;10.80;99.90;;;;;;5033826;28;20224;-76
2024/03/23 05:22:37;;;;;;;4.63;2.10;;;10.80;99.90;;;;;;5023890;28;20226;-77
2024/03/23 05:25:07;;;;;;;4.93;2.20;;;10.70;99.90;;;;;;5033569;28;20217;-77
2024/03/23 05:27:38;;;;;;;4.13;2.50;;;10.70;99.90;;;;;;5033650;28;20255;-77
2024/03/23 05:30:07;;;;;;;10.63;2.80;;;10.70;99.90;;;;;;5024287;28;20226;-77
2024/03/23 05:32:34;;;;;;;8.55;3.28;;;10.70;99.90;;;;;;5032972;28;20229;-76
2024/03/23 05:35:07;;;;;;;5.43;3.60;;;10.70;99.90;;;;;;5032714;28;20248;-77
2024/03/23 05:37:34;;;;;;;6.13;3.30;;;10.70;99.90;;;;;;5033004;28;20460;-77
2024/03/23 05:40:02;;;;;;;8.55;5.55;;;10.70;99.90;;;;;;5032545;28;20231;-77
2024/03/23 05:42:28;;;;;;;8.77;5.25;;;10.70;99.90;;;;;;5033071;28;20701;-77
2024/03/23 05:44:56;;;;;;;10.50;6.07;;;10.80;99.90;;;;;;5032718;28;20317;-77
2024/03/23 05:47:22;;;;;;;8.13;4.68;;;10.80;99.90;;;;;;5032489;28;20226;-77
2024/03/23 05:49:52;;;;;;;11.50;4.40;;;10.80;99.90;;;;;;5022808;28;20226;-77
2024/03/23 05:52:20;;;;;;;11.38;4.10;;;10.70;99.90;;;;;;5032262;28;20538;-76
2024/03/23 05:54:48;;;;;;;7.30;4.28;;;10.80;99.90;;;;;;5031868;28;20225;-77
2024/03/23 05:57:14;;;;;;;9.40;3.10;;;10.80;99.90;;;;;;5033183;28;20249;-77
2024/03/23 05:59:41;;;;;;;6.20;2.50;;;10.80;99.90;;;;;;5032199;28;20228;-76
2024/03/23 06:02:14;;;;;;;6.45;2.83;;;10.80;99.90;;;;;;5031234;28;20308;-77
2024/03/23 06:04:43;;;;;;;6.85;3.13;;;10.80;99.90;;;;;;5033002;28;20225;-77
2024/03/23 06:07:19;;;;;;;4.70;2.75;;;10.80;99.90;;;;;;5032473;28;20251;-76
2024/03/23 06:09:46;;;;;;;7.07;2.85;;;10.80;99.90;;;;;;5032825;28;20221;-76
2024/03/23 06:12:23;;;;;;;8.20;2.53;;;10.80;99.90;;;;;;5020185;28;20239;-77
2024/03/23 06:14:50;;;;;;;3.85;3.20;;;10.80;99.90;;;;;;5028081;28;20260;-76
2024/03/23 06:17:19;;;;;;;6.10;3.53;;;10.80;99.90;;;;;;5023292;28;20225;-75
2024/03/23 06:19:45;;;;;;;9.77;3.03;;;10.80;99.90;;;;;;5022435;28;20221;-75
2024/03/23 06:22:12;;;;;;;7.07;2.73;;;10.80;99.90;;;;;;5023937;28;20217;-75
2024/03/23 06:24:40;;;;;;;9.70;4.43;;;10.80;99.90;;;;;;5022353;28;20579;-77
2024/03/23 06:27:07;;;;;;;6.30;3.25;;;10.80;99.90;;;;;;5031571;28;20616;-76
2024/03/23 06:29:33;;;;;;;8.48;3.25;;;10.80;99.90;;;;;;5022820;28;20308;-78
2024/03/23 06:32:00;;;;;;;7.13;4.77;;;10.80;99.90;;;;;;5032328;28;20301;-76
2024/03/23 06:34:27;;;;;;;11.20;5.10;;;10.80;99.90;;;;;;5033993;28;20995;-78
2024/03/23 06:36:57;;;;;;;7.15;3.80;;;10.80;99.90;;;;;;5026710;28;20710;-77
2024/03/23 06:39:23;;;;;;;4.85;2.83;;;10.80;99.90;;;;;;5035489;28;20295;-77
2024/03/23 06:41:54;;;;;;;5.13;3.10;;;10.80;99.90;;;;;;5025525;28;20221;-78
2024/03/23 06:44:20;;;;;;;11.68;9.18;;;10.80;99.90;;;;;;5026247;28;20956;-78
2024/03/23 06:47:01;;;;;;;18.90;14.20;;;10.80;99.90;;;;;;5035790;28;20694;-77
2024/03/23 06:49:31;;;;;;;8.70;5.78;;;10.80;99.90;;;;;;5035691;28;20217;-78
2024/03/23 06:51:57;;;;;;;6.93;4.18;;;10.80;99.90;;;;;;5036056;28;20572;-78
2024/03/23 06:54:28;;;;;;;6.05;3.70;;;10.80;99.90;;;;;;5035729;28;20225;-78
2024/03/23 06:56:54;;;;;;;5.15;3.63;;;10.80;99.90;;;;;;5036236;28;20221;-78
2024/03/23 06:59:26;;;;;;;4.60;2.77;;;10.90;99.90;;;;;;5035423;28;20666;-77
2024/03/23 07:01:52;;;;;;;4.82;2.92;;;10.80;99.90;;;;;;5036514;28;20958;-76
2024/03/23 07:04:20;;;;;;;5.20;2.43;;;10.90;99.90;;;;;;5035512;28;20228;-78
2024/03/23 07:06:48;;;;;;;3.72;2.63;;;10.90;99.90;;;;;;5036112;28;20606;-77
2024/03/23 07:09:16;;;;;;;7.30;3.20;;;10.90;99.90;;;;;;5035488;28;20222;-77
2024/03/23 07:11:42;;;;;;;3.28;2.33;;;10.90;99.90;;;;;;5035488;28;20313;-77
2024/03/23 07:14:09;;;;;;;7.00;2.23;;;10.90;99.90;;;;;;5024657;28;20304;-78
2024/03/23 07:16:41;;;;;;;5.20;2.58;;;10.90;99.90;;;;;;5035140;28;20463;-78
2024/03/23 07:19:08;;;;;;;8.45;5.10;;;10.90;99.90;;;;;;5035609;28;20697;-78
2024/03/23 07:21:34;;;;;;;8.88;5.90;;;10.90;99.90;;;;;;5026338;28;20233;-78
2024/03/23 07:24:09;;;;;;;7.30;4.38;;;10.90;99.90;;;;;;5016029;28;20217;-77
2024/03/23 07:26:41;;;;;;;13.20;7.30;;;10.90;99.90;;;;;;5034880;28;20263;-77
2024/03/23 07:29:08;;;;;;;9.02;5.03;;;10.90;99.90;;;;;;5035772;28;20232;-77
2024/03/23 07:31:34;;;;;;;4.57;2.40;;;10.90;99.90;;;;;;5035159;28;20225;-77
2024/03/23 07:34:16;;;;;;;5.57;3.40;;;10.90;99.90;;;;;;5035559;28;20221;-76
2024/03/23 07:36:45;;;;;;;6.78;3.08;;;10.90;99.90;;;;;;5021591;28;20480;-77
2024/03/23 07:39:15;;;;;;;6.22;3.05;;;10.90;99.90;;;;;;5033996;28;20221;-77
2024/03/23 07:41:45;;;;;;;6.05;2.60;;;11.00;99.90;;;;;;5034549;28;20235;-78
2024/03/23 07:44:12;;;;;;;8.27;5.75;;;10.90;99.90;;;;;;5035007;28;20217;-78
2024/03/23 07:46:41;;;;;;;10.07;7.30;;;11.00;99.90;;;;;;5033859;28;20221;-78
2024/03/23 07:49:21;;;;;;;6.95;3.90;;;11.00;99.90;;;;;;5035663;28;20289;-78
2024/03/23 07:51:57;;;;;;;6.30;4.15;;;11.00;99.90;;;;;;5016831;28;20221;-77
2024/03/23 07:54:28;;;;;;;8.27;3.75;;;11.00;99.90;;;;;;5035024;28;20225;-77
2024/03/23 07:56:54;;;;;;;4.35;2.97;;;11.00;99.90;;;;;;5015359;28;20586;-76
2024/03/23 07:59:22;;;;;;;4.20;2.65;;;11.00;99.90;;;;;;5034837;28;20229;-76
2024/03/23 08:01:48;;;;;;;7.03;2.30;;;11.00;99.90;;;;;;5023927;28;20217;-76
2024/03/23 08:04:23;;;;;;;4.97;2.40;;;11.00;99.90;;;;;;5024224;28;20315;-76
2024/03/23 08:06:49;;;;;;;7.68;3.45;;;11.00;99.90;;;;;;5033820;28;20479;-75
2024/03/23 08:09:16;;;;;;;3.40;2.53;;;11.00;99.90;;;;;;5033890;28;20700;-75
2024/03/23 08:11:46;;;;;;;4.55;2.90;;;10.90;99.90;;;;;;5034748;28;20922;-76
2024/03/23 08:14:14;;;;;;;9.23;3.63;;;10.90;99.90;;;;;;5034274;28;20232;-76
2024/03/23 08:16:40;;;;;;;4.80;3.00;;;10.90;99.90;;;;;;5033630;28;20312;-76
2024/03/23 08:19:08;;;;;;;6.38;2.60;;;10.90;99.90;;;;;;5034101;28;20275;-75
2024/03/23 08:21:35;;;;;;;4.72;2.80;;;10.80;99.90;;;;;;5034643;28;20221;-75
2024/03/23 08:24:03;;;;;;;5.68;2.67;;;10.80;99.90;;;;;;5033760;28;20252;-75
2024/03/23 08:26:34;;;;;;;2.63;2.30;;;10.80;99.90;;;;;;5034425;28;20221;-76
2024/03/23 08:29:03;;;;;;;5.60;3.00;;;10.80;99.90;;;;;;5015038;28;20217;-77
2024/03/23 08:31:32;;;;;;;4.43;2.58;;;10.70;99.90;;;;;;5024222;28;20364;-78
2024/03/23 08:34:11;;;;;;;3.40;2.63;;;10.70;99.90;;;;;;5033582;28;20232;-76
2024/03/23 08:36:37;;;;;;;9.07;3.80;;;10.70;99.90;;;;;;5034796;28;20275;-78
2024/03/23 08:39:04;;;;;;;5.60;2.13;;;10.60;99.90;;;;;;5033106;28;20214;-78
2024/03/23 08:41:30;;;;;;;3.90;2.60;;;10.60;99.90;;;;;;5034507;28;20257;-78
2024/03/23 08:44:03;;;;;;;3.53;2.58;;;10.60;99.90;;;;;;5033010;28;20694;-78
2024/03/23 08:46:34;;;;;;;10.23;5.95;;;10.50;99.90;;;;;;5033948;28;20221;-78
2024/03/23 08:49:08;;;;;;;7.28;4.38;;;10.50;99.90;;;;;;5032403;28;20234;-78
2024/03/23 08:51:34;;;;;;;9.45;4.80;;;10.50;99.90;;;;;;5033464;28;20225;-77
2024/03/23 08:54:01;;;;;;;6.00;4.13;;;10.40;99.90;;;;;;5033404;28;20294;-78
2024/03/23 08:56:36;;;;;;;4.43;3.47;;;10.40;99.90;;;;;;5033381;28;20472;-77
2024/03/23 08:59:03;;;;;;;7.28;2.70;;;10.30;99.90;;;;;;5033287;28;20220;-77
2024/03/23 09:01:31;;;;;;;9.40;3.33;;;10.30;99.90;;;;;;5021937;28;20236;-78
2024/03/23 09:03:58;;;;;;;7.22;2.97;;;10.30;99.90;;;;;;5033713;28;20237;-77
2024/03/23 09:06:24;;;;;;;5.07;2.60;;;10.20;99.90;;;;;;5031926;28;20221;-78
2024/03/23 09:08:51;;;;;;;7.60;2.70;;;10.20;99.90;;;;;;5033953;28;20225;-77
2024/03/23 09:11:20;;;;;;;5.55;2.50;;;10.20;99.90;;;;;;5033798;28;20472;-78
2024/03/23 09:13:49;;;;;;;2.60;1.40;;;10.10;99.90;;;;;;5032344;28;20221;-77
2024/03/23 09:16:16;;;;;;;2.67;1.40;;;10.10;99.90;;;;;;5032364;28;20226;-77
2024/03/23 09:18:53;;;;;;;3.80;1.52;;;10.00;99.90;;;;;;5032920;28;20217;-77
2024/03/23 09:21:19;;;;;;;8.50;2.53;;;9.90;99.90;;;;;;5032790;28;20566;-77
2024/03/23 09:23:52;;;;;;;4.32;2.30;;;9.90;99.90;;;;;;5029051;28;20279;-78
2024/03/23 09:26:18;;;;;;;3.97;2.00;;;9.80;99.90;;;;;;5033559;28;20225;-77
2024/03/23 09:28:45;;;;;;;3.55;2.47;;;9.80;99.90;;;;;;5032368;28;20229;-77
2024/03/23 09:31:14;;;;;;;4.53;3.70;;;9.80;99.90;;;;;;5021934;28;20253;-77
2024/03/23 09:33:41;;;;;;;8.02;3.00;;;9.70;99.90;;;;;;5031959;28;20596;-78
2024/03/23 09:36:09;;;;;;;5.50;2.78;;;9.70;99.90;;;;;;5023033;28;20229;-78
2024/03/23 09:38:36;;;;;;;7.43;2.70;;;9.70;99.90;;;;;;5032435;28;20229;-78
2024/03/23 09:41:07;;;;;;;4.13;2.38;;;9.60;99.90;;;;;;5022251;28;20217;-77
2024/03/23 09:43:37;;;;;;;3.10;1.80;;;9.60;99.90;;;;;;5032314;28;20225;-78
2024/03/23 09:46:04;;;;;;;4.13;2.22;;;9.60;99.90;;;;;;5032790;28;20252;-78
2024/03/23 09:48:35;;;;;;;5.47;2.53;;;9.50;99.90;;;;;;5032508;28;20232;-78
2024/03/23 09:51:09;;;;;;;4.32;2.40;;;9.50;99.90;;;;;;5032947;28;20232;-77
2024/03/23 09:53:40;;;;;;;4.82;2.65;;;9.50;99.90;;;;;;5033287;28;20321;-77
2024/03/23 09:56:13;;;;;;;6.00;2.47;;;9.50;99.90;;;;;;5021887;28;20248;-78
2024/03/23 09:58:40;;;;;;;3.97;2.85;;;9.50;99.90;;;;;;5032094;28;20225;-78
2024/03/23 10:01:08;;;;;;;4.57;2.67;;;9.50;99.90;;;;;;5020143;28;20256;-78
2024/03/23 10:03:49;;;;;;;4.47;2.47;;;9.50;99.90;;;;;;5029843;28;20221;-77
2024/03/23 10:06:22;;;;;;;8.43;1.95;;;9.50;99.90;;;;;;5022178;28;20225;-77
2024/03/23 10:08:55;;;;;;;2.60;2.05;;;9.50;99.90;;;;;;5033701;28;20213;-77
2024/03/23 10:11:21;;;;;;;5.05;2.38;;;9.50;99.90;;;;;;5027437;28;20236;-77
2024/03/23 10:13:50;;;;;;;3.58;2.08;;;9.50;99.90;;;;;;5036097;28;20627;-78
2024/03/23 10:16:24;;;;;;;3.45;2.50;;;9.50;99.90;;;;;;5035943;28;20264;-77
2024/03/23 10:18:51;;;;;;;6.57;1.73;;;9.50;99.90;;;;;;5036984;28;20208;-77
2024/03/23 10:21:18;;;;;;;3.65;2.20;;;9.50;99.90;;;;;;5036076;28;20225;-78
2024/03/23 10:23:51;;;;;;;3.70;1.77;;;9.40;99.90;;;;;;5036571;28;20255;-78
2024/03/23 10:26:27;;;;;;;5.03;2.22;;;9.40;99.90;;;;;;5035576;28;20231;-77
2024/03/23 10:28:56;;;;;;;6.30;3.22;;;9.40;99.90;;;;;;5026099;28;20734;-77
2024/03/23 10:31:24;;;;;;;6.95;5.75;;;9.40;99.90;;;;;;5036186;28;20308;-77
2024/03/23 10:34:05;;;;;;;7.65;4.60;;;9.40;99.90;;;;;;5036826;28;20546;-77
2024/03/23 10:36:59;;;;;;;7.75;3.30;;;9.40;99.90;;;;;;5024561;28;20240;-76
2024/03/23 10:39:27;;;;;;;4.18;2.70;;;9.40;99.90;;;;;;5030913;28;20256;-77
2024/03/23 10:42:12;;;;;;;6.05;2.95;;;9.40;99.90;;;;;;5025341;28;20225;-77
2024/03/23 10:44:56;;;;;;;5.68;2.28;;;9.40;99.90;;;;;;5035595;28;20231;-77
2024/03/23 10:47:22;;;;;;;5.72;2.70;;;9.50;99.90;;;;;;5026092;28;20213;-78
2024/03/23 10:49:57;;;;;;;7.63;3.22;;;9.50;99.90;;;;;;5036060;28;20217;-77
2024/03/23 10:52:25;;;;;;;6.30;3.50;;;9.50;99.90;;;;;;5035983;28;20555;-77
2024/03/23 10:54:53;;;;;;;8.40;3.03;;;9.50;99.90;;;;;;5036080;28;20736;-77
2024/03/23 10:57:40;;;;;;;;;;;;;;;;;;;;;
2024/03/23 11:00:18;;;;;;;5.75;3.78;;;9.50;99.90;;;;;;5027348;28;20239;-77
2024/03/23 11:02:50;;;;;;;7.32;3.80;;;9.50;99.90;;;;;;5020664;28;20237;-78
2024/03/23 11:05:52;;;;;;;5.57;2.65;;;9.50;99.90;;;;;;5031363;28;20318;-78
2024/03/23 11:08:33;;;;;;;5.55;3.22;;;9.60;99.90;;;;;;4974551;28;20223;-77
2024/03/23 11:11:16;;;;;;;7.35;2.75;;;9.60;99.90;;;;;;4974867;28;20223;-78
2024/03/23 11:13:45;;;;;;;5.82;2.78;;;9.70;99.90;;;;;;4975546;28;20348;-77
2024/03/23 11:16:16;;;;;;;9.70;3.47;;;9.70;99.90;;;;;;4987776;28;20221;-78
2024/03/23 11:18:47;;;;;;;5.22;2.47;;;9.70;99.90;;;;;;5035550;28;20244;-78
2024/03/23 11:21:54;;;;;;;5.60;3.78;;;9.80;99.90;;;;;;5035394;28;20533;-77
2024/03/23 11:24:23;;;;;;;7.32;2.50;;;9.80;99.90;;;;;;5036077;28;20224;-76
2024/03/23 11:26:50;;;;;;;4.72;2.50;;;9.80;99.90;;;;;;5022569;28;20233;-76
2024/03/23 11:29:18;;;;;;;5.72;2.72;;;9.80;99.90;;;;;;5034715;28;20243;-77
2024/03/23 11:31:48;;;;;;;8.63;2.75;;;9.90;99.90;;;;;;5034856;28;20221;-77
2024/03/23 11:34:44;;;;;;;9.45;3.78;;;9.90;99.90;;;;;;5024241;28;20283;-77
2024/03/23 11:37:12;;;;;;;3.63;2.95;;;10.00;99.90;;;;;;5016786;28;20588;-77
2024/03/23 11:39:42;;;;;;;5.07;3.00;;;10.00;99.90;;;;;;5024740;28;20271;-77
2024/03/23 11:42:09;;;;;;;4.78;2.97;;;10.00;99.90;;;;;;5034753;28;20301;-76
2024/03/23 11:44:35;;;;;;;4.65;2.85;;;10.10;99.90;;;;;;5022986;28;20248;-77
2024/03/23 11:47:10;;;;;;;9.67;3.03;;;10.20;99.90;;;;;;5034833;28;20225;-77
2024/03/23 11:49:40;;;;;;;6.32;3.35;;;10.20;99.90;;;;;;5035102;28;20471;-76
2024/03/23 11:52:10;;;;;;;14.07;5.88;;;10.30;99.90;;;;;;5034386;28;20228;-76
2024/03/23 11:54:57;;;;;;;;;;;;;;;;;;;;;
2024/03/23 11:57:25;;;;;;;6.18;3.25;;;10.40;99.90;;;;;;5034793;28;20222;-76
2024/03/23 11:59:51;;;;;;;9.07;3.33;;;10.50;99.90;;;;;;5015661;28;20233;-77
2024/03/23 12:02:19;;;;;;;5.33;2.80;;;10.60;99.90;;;;;;5034753;28;20217;-77
2024/03/23 12:04:56;;;;;;;5.50;3.30;;;10.70;99.90;;;;;;5024339;28;20484;-76
2024/03/23 12:07:25;;;;;;;7.07;2.78;;;10.80;99.90;;;;;;5024565;28;20233;-76
2024/03/23 12:10:28;;;;;;;7.00;2.45;;;10.80;99.90;;;;;;5033937;28;20733;-76
2024/03/23 12:14:03;;;;;;;11.07;3.05;;;10.80;99.90;;;;;;5023077;28;20315;-76
2024/03/23 12:16:29;;;;;;;6.78;2.42;;;10.80;99.90;;;;;;5023698;28;20287;-76
2024/03/23 12:19:09;;;;;;;8.57;2.33;;;10.70;99.90;;;;;;5033637;28;20229;-77
2024/03/23 12:21:35;;;;;;;7.03;2.83;;;10.70;99.90;;;;;;5020702;28;20519;-77
2024/03/23 12:24:02;;;;;;;8.60;5.35;;;10.80;99.90;;;;;;5034605;28;20308;-77
2024/03/23 12:26:30;;;;;;;6.30;3.70;;;10.80;99.90;;;;;;5034223;28;20225;-76
2024/03/23 12:29:36;;;;;;;8.18;3.10;;;10.80;99.90;;;;;;5034466;28;20222;-76
2024/03/23 12:32:05;;;;;;;8.20;3.10;;;10.80;99.90;;;;;;5025092;28;20304;-76
2024/03/23 12:34:32;;;;;;;7.03;2.85;;;10.80;99.90;;;;;;5034185;28;20232;-77
2024/03/23 12:37:06;;;;;;;4.43;2.60;;;10.80;99.90;;;;;;5033455;28;20519;-76
2024/03/23 12:39:34;;;;;;;6.00;2.47;;;10.80;99.90;;;;;;5034042;28;20226;-76
2024/03/23 12:42:02;;;;;;;5.55;3.25;;;10.90;99.90;;;;;;5033627;28;20230;-77
2024/03/23 12:44:38;;;;;;;6.70;2.40;;;10.90;99.90;;;;;;5024076;28;20291;-76
2024/03/23 12:47:05;;;;;;;5.47;2.60;;;10.80;99.90;;;;;;5032368;28;20236;-76
2024/03/23 12:49:46;;;;;;;6.70;3.10;;;10.80;99.90;;;;;;5033569;28;20686;-76
2024/03/23 12:52:28;;;;;;;4.70;3.30;;;10.90;99.90;;;;;;5033325;28;20225;-77
2024/03/23 12:54:57;;;;;;;2.75;2.45;;;10.90;99.90;;;;;;5033057;28;20568;-77
2024/03/23 12:57:26;;;;;;;4.93;2.33;;;11.00;99.90;;;;;;5033836;28;20229;-76
2024/03/23 12:59:54;;;;;;;4.95;2.28;;;11.10;99.90;;;;;;5032704;28;20217;-76
2024/03/23 13:02:21;;;;;;;7.72;3.15;;;11.10;99.90;;;;;;5033527;28;20360;-76
2024/03/23 13:05:02;;;;;;;4.22;2.10;;;11.00;99.90;;;;;;5033859;28;20228;-76
2024/03/23 13:07:32;;;;;;;4.20;2.05;;;11.10;99.90;;;;;;5034040;28;20316;-77
2024/03/23 13:09:59;;;;;;;6.07;2.33;;;11.10;99.90;;;;;;5032878;28;20303;-77